sensor_id;sensor_type;location;lat;lon;timestamp;P1;durP1;ratioP1;P2;durP2;ratioP2
10872;SDS011;34586;53.616;10.032;2023-11-19T00:01:27;10.03;;;7.93;;
10872;SDS011;34586;53.616;10.032;2023-11-19T00:03:53;9.53;;;7.80;;
10872;SDS011;34586;53.616;10.032;2023-11-19T00:06:18;8.23;;;7.43;;
10872;SDS011;34586;53.616;10.032;2023-11-19T00:08:44;8.90;;;7.87;;
10872;SDS011;34586;53.616;10.032;2023-11-19T00:11:10;8.13;;;7.33;;
10872;SDS011;34586;53.616;10.032;2023-11-19T00:13:36;7.97;;;7.00;;
10872;SDS011;34586;53.616;10.032;2023-11-19T00:16:02;7.83;;;7.00;;
10872;SDS011;34586;53.616;10.032;2023-11-19T00:18:29;7.47;;;6.70;;
10872;SDS011;34586;53.616;10.032;2023-11-19T00:20:55;6.30;;;5.70;;
10872;SDS011;34586;53.616;10.032;2023-11-19T00:23:20;7.30;;;6.37;;
10872;SDS011;34586;53.616;10.032;2023-11-19T00:25:46;7.20;;;6.50;;
10872;SDS011;34586;53.616;10.032;2023-11-19T00:28:12;6.80;;;6.10;;
10872;SDS011;34586;53.616;10.032;2023-11-19T00:30:38;6.40;;;5.80;;
10872;SDS011;34586;53.616;10.032;2023-11-19T00:33:05;6.70;;;6.00;;
10872;SDS011;34586;53.616;10.032;2023-11-19T00:35:31;6.23;;;5.63;;
10872;SDS011;34586;53.616;10.032;2023-11-19T00:37:57;5.63;;;5.10;;
10872;SDS011;34586;53.616;10.032;2023-11-19T00:40:23;5.30;;;4.80;;
10872;SDS011;34586;53.616;10.032;2023-11-19T00:42:49;5.23;;;4.73;;
10872;SDS011;34586;53.616;10.032;2023-11-19T00:45:14;5.37;;;4.73;;
10872;SDS011;34586;53.616;10.032;2023-11-19T00:47:40;5.43;;;4.93;;
10872;SDS011;34586;53.616;10.032;2023-11-19T00:50:06;5.23;;;4.70;;
10872;SDS011;34586;53.616;10.032;2023-11-19T00:52:36;4.37;;;3.97;;
10872;SDS011;34586;53.616;10.032;2023-11-19T00:55:02;4.63;;;4.23;;
10872;SDS011;34586;53.616;10.032;2023-11-19T00:57:29;4.63;;;4.23;;
10872;SDS011;34586;53.616;10.032;2023-11-19T00:59:58;4.20;;;3.80;;
10872;SDS011;34586;53.616;10.032;2023-11-19T01:02:24;4.10;;;3.70;;
10872;SDS011;34586;53.616;10.032;2023-11-19T01:04:50;3.57;;;3.27;;
10872;SDS011;34586;53.616;10.032;2023-11-19T01:07:15;4.13;;;3.70;;
10872;SDS011;34586;53.616;10.032;2023-11-19T01:09:42;3.93;;;3.63;;
10872;SDS011;34586;53.616;10.032;2023-11-19T01:12:08;4.00;;;3.70;;
10872;SDS011;34586;53.616;10.032;2023-11-19T01:14:35;3.93;;;3.53;;
10872;SDS011;34586;53.616;10.032;2023-11-19T01:17:01;3.70;;;3.40;;
10872;SDS011;34586;53.616;10.032;2023-11-19T01:19:27;3.77;;;3.47;;
10872;SDS011;34586;53.616;10.032;2023-11-19T01:21:53;3.33;;;3.13;;
10872;SDS011;34586;53.616;10.032;2023-11-19T01:24:19;3.50;;;3.17;;
10872;SDS011;34586;53.616;10.032;2023-11-19T01:26:45;3.17;;;2.97;;
10872;SDS011;34586;53.616;10.032;2023-11-19T01:29:12;3.07;;;2.87;;
10872;SDS011;34586;53.616;10.032;2023-11-19T01:31:41;3.20;;;2.90;;
10872;SDS011;34586;53.616;10.032;2023-11-19T01:34:07;2.43;;;2.30;;
10872;SDS011;34586;53.616;10.032;2023-11-19T01:36:33;2.80;;;2.60;;
10872;SDS011;34586;53.616;10.032;2023-11-19T01:38:58;2.20;;;2.10;;
10872;SDS011;34586;53.616;10.032;2023-11-19T01:41:24;2.20;;;2.10;;
10872;SDS011;34586;53.616;10.032;2023-11-19T01:43:50;2.07;;;1.97;;
10872;SDS011;34586;53.616;10.032;2023-11-19T01:46:15;2.57;;;2.40;;
10872;SDS011;34586;53.616;10.032;2023-11-19T01:48:44;2.50;;;1.90;;
10872;SDS011;34586;53.616;10.032;2023-11-19T01:51:11;2.00;;;1.90;;
10872;SDS011;34586;53.616;10.032;2023-11-19T01:53:38;2.13;;;2.03;;
10872;SDS011;34586;53.616;10.032;2023-11-19T01:56:06;1.93;;;1.83;;
10872;SDS011;34586;53.616;10.032;2023-11-19T01:58:34;3.33;;;1.93;;
10872;SDS011;34586;53.616;10.032;2023-11-19T02:01:01;1.80;;;1.70;;
10872;SDS011;34586;53.616;10.032;2023-11-19T02:03:29;2.23;;;2.13;;
10872;SDS011;34586;53.616;10.032;2023-11-19T02:05:57;1.70;;;1.60;;
10872;SDS011;34586;53.616;10.032;2023-11-19T02:08:24;2.03;;;1.93;;
10872;SDS011;34586;53.616;10.032;2023-11-19T02:10:51;1.87;;;1.77;;
10872;SDS011;34586;53.616;10.032;2023-11-19T02:13:17;1.70;;;1.60;;
10872;SDS011;34586;53.616;10.032;2023-11-19T02:15:46;1.40;;;1.40;;
10872;SDS011;34586;53.616;10.032;2023-11-19T02:18:18;1.40;;;1.30;;
10872;SDS011;34586;53.616;10.032;2023-11-19T02:20:47;1.60;;;1.50;;
10872;SDS011;34586;53.616;10.032;2023-11-19T02:23:16;1.23;;;1.23;;
10872;SDS011;34586;53.616;10.032;2023-11-19T02:25:42;1.70;;;1.60;;
10872;SDS011;34586;53.616;10.032;2023-11-19T02:28:10;1.20;;;1.20;;
10872;SDS011;34586;53.616;10.032;2023-11-19T02:30:37;1.10;;;1.10;;
10872;SDS011;34586;53.616;10.032;2023-11-19T02:33:02;1.40;;;1.30;;
10872;SDS011;34586;53.616;10.032;2023-11-19T02:35:30;1.37;;;1.27;;
10872;SDS011;34586;53.616;10.032;2023-11-19T02:37:56;1.20;;;1.20;;
10872;SDS011;34586;53.616;10.032;2023-11-19T02:40:24;1.30;;;1.30;;
10872;SDS011;34586;53.616;10.032;2023-11-19T02:42:51;1.20;;;1.20;;
10872;SDS011;34586;53.616;10.032;2023-11-19T02:45:17;1.17;;;1.17;;
10872;SDS011;34586;53.616;10.032;2023-11-19T02:47:43;1.30;;;1.30;;
10872;SDS011;34586;53.616;10.032;2023-11-19T02:50:12;1.17;;;1.17;;
10872;SDS011;34586;53.616;10.032;2023-11-19T02:52:42;1.27;;;1.27;;
10872;SDS011;34586;53.616;10.032;2023-11-19T02:55:09;1.10;;;1.10;;
10872;SDS011;34586;53.616;10.032;2023-11-19T02:57:38;1.20;;;1.20;;
10872;SDS011;34586;53.616;10.032;2023-11-19T03:00:11;1.10;;;1.10;;
10872;SDS011;34586;53.616;10.032;2023-11-19T03:02:44;1.30;;;1.30;;
10872;SDS011;34586;53.616;10.032;2023-11-19T03:05:14;1.20;;;1.20;;
10872;SDS011;34586;53.616;10.032;2023-11-19T03:07:41;1.10;;;1.10;;
10872;SDS011;34586;53.616;10.032;2023-11-19T03:10:08;1.60;;;1.50;;
10872;SDS011;34586;53.616;10.032;2023-11-19T03:12:38;1.67;;;1.57;;
10872;SDS011;34586;53.616;10.032;2023-11-19T03:15:05;1.57;;;1.47;;
10872;SDS011;34586;53.616;10.032;2023-11-19T03:17:30;1.57;;;1.47;;
10872;SDS011;34586;53.616;10.032;2023-11-19T03:19:56;1.53;;;1.37;;
10872;SDS011;34586;53.616;10.032;2023-11-19T03:22:22;1.83;;;1.73;;
10872;SDS011;34586;53.616;10.032;2023-11-19T03:24:47;1.73;;;1.63;;
10872;SDS011;34586;53.616;10.032;2023-11-19T03:27:16;1.70;;;1.60;;
10872;SDS011;34586;53.616;10.032;2023-11-19T03:29:41;1.50;;;1.50;;
10872;SDS011;34586;53.616;10.032;2023-11-19T03:32:08;1.63;;;1.53;;
10872;SDS011;34586;53.616;10.032;2023-11-19T03:34:33;1.57;;;1.57;;
10872;SDS011;34586;53.616;10.032;2023-11-19T03:36:59;2.00;;;1.90;;
10872;SDS011;34586;53.616;10.032;2023-11-19T03:39:25;2.00;;;1.90;;
10872;SDS011;34586;53.616;10.032;2023-11-19T03:41:52;2.00;;;1.90;;
10872;SDS011;34586;53.616;10.032;2023-11-19T03:44:17;1.60;;;1.50;;
10872;SDS011;34586;53.616;10.032;2023-11-19T03:46:44;1.90;;;1.80;;
10872;SDS011;34586;53.616;10.032;2023-11-19T03:49:09;1.93;;;1.83;;
10872;SDS011;34586;53.616;10.032;2023-11-19T03:51:35;2.33;;;1.90;;
10872;SDS011;34586;53.616;10.032;2023-11-19T03:54:00;1.90;;;1.87;;
10872;SDS011;34586;53.616;10.032;2023-11-19T03:56:26;1.73;;;1.73;;
10872;SDS011;34586;53.616;10.032;2023-11-19T03:58:52;2.50;;;2.33;;
10872;SDS011;34586;53.616;10.032;2023-11-19T04:01:18;2.43;;;2.33;;
10872;SDS011;34586;53.616;10.032;2023-11-19T04:03:43;3.10;;;2.90;;
10872;SDS011;34586;53.616;10.032;2023-11-19T04:06:09;2.53;;;2.43;;
10872;SDS011;34586;53.616;10.032;2023-11-19T04:08:35;2.93;;;2.83;;
10872;SDS011;34586;53.616;10.032;2023-11-19T04:11:01;2.60;;;2.50;;
10872;SDS011;34586;53.616;10.032;2023-11-19T04:13:28;2.90;;;2.73;;
10872;SDS011;34586;53.616;10.032;2023-11-19T04:15:53;3.30;;;3.10;;
10872;SDS011;34586;53.616;10.032;2023-11-19T04:18:19;3.40;;;3.20;;
10872;SDS011;34586;53.616;10.032;2023-11-19T04:20:45;3.70;;;3.47;;
10872;SDS011;34586;53.616;10.032;2023-11-19T04:23:10;3.90;;;3.70;;
10872;SDS011;34586;53.616;10.032;2023-11-19T04:25:36;3.67;;;3.47;;
10872;SDS011;34586;53.616;10.032;2023-11-19T04:28:02;4.00;;;3.70;;
10872;SDS011;34586;53.616;10.032;2023-11-19T04:30:29;4.17;;;3.97;;
10872;SDS011;34586;53.616;10.032;2023-11-19T04:32:56;4.57;;;4.27;;
10872;SDS011;34586;53.616;10.032;2023-11-19T04:35:22;4.60;;;4.30;;
10872;SDS011;34586;53.616;10.032;2023-11-19T04:37:48;4.70;;;4.40;;
10872;SDS011;34586;53.616;10.032;2023-11-19T04:40:14;4.90;;;4.60;;
10872;SDS011;34586;53.616;10.032;2023-11-19T04:42:39;5.30;;;4.90;;
10872;SDS011;34586;53.616;10.032;2023-11-19T04:45:05;6.77;;;6.27;;
10872;SDS011;34586;53.616;10.032;2023-11-19T04:47:32;7.10;;;6.50;;
10872;SDS011;34586;53.616;10.032;2023-11-19T04:49:59;7.63;;;6.90;;
10872;SDS011;34586;53.616;10.032;2023-11-19T04:52:25;7.87;;;7.27;;
10872;SDS011;34586;53.616;10.032;2023-11-19T04:54:50;7.73;;;7.03;;
10872;SDS011;34586;53.616;10.032;2023-11-19T04:57:16;6.73;;;6.23;;
10872;SDS011;34586;53.616;10.032;2023-11-19T04:59:42;8.77;;;7.87;;
10872;SDS011;34586;53.616;10.032;2023-11-19T05:02:08;8.33;;;7.63;;
10872;SDS011;34586;53.616;10.032;2023-11-19T05:04:33;9.00;;;8.20;;
10872;SDS011;34586;53.616;10.032;2023-11-19T05:06:59;11.73;;;8.30;;
10872;SDS011;34586;53.616;10.032;2023-11-19T05:09:25;9.63;;;8.27;;
10872;SDS011;34586;53.616;10.032;2023-11-19T05:11:51;9.90;;;8.90;;
10872;SDS011;34586;53.616;10.032;2023-11-19T05:14:17;9.70;;;8.80;;
10872;SDS011;34586;53.616;10.032;2023-11-19T05:16:45;10.43;;;8.97;;
10872;SDS011;34586;53.616;10.032;2023-11-19T05:19:11;9.90;;;9.00;;
10872;SDS011;34586;53.616;10.032;2023-11-19T05:21:37;9.37;;;8.50;;
10872;SDS011;34586;53.616;10.032;2023-11-19T05:24:02;9.40;;;8.40;;
10872;SDS011;34586;53.616;10.032;2023-11-19T05:26:31;9.70;;;8.80;;
10872;SDS011;34586;53.616;10.032;2023-11-19T05:28:56;10.50;;;9.07;;
10872;SDS011;34586;53.616;10.032;2023-11-19T05:31:22;11.60;;;8.83;;
10872;SDS011;34586;53.616;10.032;2023-11-19T05:33:48;9.03;;;8.23;;
10872;SDS011;34586;53.616;10.032;2023-11-19T05:36:14;10.53;;;9.20;;
10872;SDS011;34586;53.616;10.032;2023-11-19T05:38:40;11.47;;;9.83;;
10872;SDS011;34586;53.616;10.032;2023-11-19T05:41:06;10.67;;;9.60;;
10872;SDS011;34586;53.616;10.032;2023-11-19T05:43:31;11.30;;;10.10;;
10872;SDS011;34586;53.616;10.032;2023-11-19T05:45:57;10.70;;;9.67;;
10872;SDS011;34586;53.616;10.032;2023-11-19T05:48:25;14.43;;;10.40;;
10872;SDS011;34586;53.616;10.032;2023-11-19T05:50:51;12.87;;;10.07;;
10872;SDS011;34586;53.616;10.032;2023-11-19T05:53:17;12.57;;;9.60;;
10872;SDS011;34586;53.616;10.032;2023-11-19T05:55:42;10.03;;;9.03;;
10872;SDS011;34586;53.616;10.032;2023-11-19T05:58:14;10.73;;;9.60;;
10872;SDS011;34586;53.616;10.032;2023-11-19T06:00:40;14.20;;;11.37;;
10872;SDS011;34586;53.616;10.032;2023-11-19T06:03:09;14.00;;;10.97;;
10872;SDS011;34586;53.616;10.032;2023-11-19T06:05:35;12.27;;;10.23;;
10872;SDS011;34586;53.616;10.032;2023-11-19T06:08:01;16.00;;;12.10;;
10872;SDS011;34586;53.616;10.032;2023-11-19T06:10:26;22.77;;;15.20;;
10872;SDS011;34586;53.616;10.032;2023-11-19T06:12:55;24.13;;;15.77;;
10872;SDS011;34586;53.616;10.032;2023-11-19T06:15:22;28.63;;;16.73;;
10872;SDS011;34586;53.616;10.032;2023-11-19T06:17:47;28.67;;;17.63;;
10872;SDS011;34586;53.616;10.032;2023-11-19T06:20:13;28.97;;;17.17;;
10872;SDS011;34586;53.616;10.032;2023-11-19T06:22:39;35.20;;;19.67;;
10872;SDS011;34586;53.616;10.032;2023-11-19T06:25:07;33.13;;;19.37;;
10872;SDS011;34586;53.616;10.032;2023-11-19T06:27:33;30.97;;;18.67;;
10872;SDS011;34586;53.616;10.032;2023-11-19T06:29:59;32.03;;;18.77;;
10872;SDS011;34586;53.616;10.032;2023-11-19T06:32:25;32.20;;;18.20;;
10872;SDS011;34586;53.616;10.032;2023-11-19T06:34:51;40.20;;;19.80;;
10872;SDS011;34586;53.616;10.032;2023-11-19T06:37:16;34.50;;;18.87;;
10872;SDS011;34586;53.616;10.032;2023-11-19T06:39:42;43.80;;;19.97;;
10872;SDS011;34586;53.616;10.032;2023-11-19T06:42:07;46.40;;;19.03;;
10872;SDS011;34586;53.616;10.032;2023-11-19T06:44:33;38.87;;;18.97;;
10872;SDS011;34586;53.616;10.032;2023-11-19T06:46:59;36.57;;;17.53;;
10872;SDS011;34586;53.616;10.032;2023-11-19T06:49:25;46.93;;;19.17;;
10872;SDS011;34586;53.616;10.032;2023-11-19T06:51:50;35.37;;;17.13;;
10872;SDS011;34586;53.616;10.032;2023-11-19T06:54:16;45.80;;;18.03;;
10872;SDS011;34586;53.616;10.032;2023-11-19T06:56:42;52.80;;;17.30;;
10872;SDS011;34586;53.616;10.032;2023-11-19T06:59:08;46.93;;;17.63;;
10872;SDS011;34586;53.616;10.032;2023-11-19T07:01:35;43.07;;;16.80;;
10872;SDS011;34586;53.616;10.032;2023-11-19T07:04:01;36.47;;;13.77;;
10872;SDS011;34586;53.616;10.032;2023-11-19T07:06:33;42.93;;;14.83;;
10872;SDS011;34586;53.616;10.032;2023-11-19T07:08:59;42.10;;;15.03;;
10872;SDS011;34586;53.616;10.032;2023-11-19T07:11:34;43.83;;;14.63;;
10872;SDS011;34586;53.616;10.032;2023-11-19T07:14:03;40.00;;;14.70;;
10872;SDS011;34586;53.616;10.032;2023-11-19T07:16:30;40.70;;;13.70;;
10872;SDS011;34586;53.616;10.032;2023-11-19T07:18:56;36.20;;;12.47;;
10872;SDS011;34586;53.616;10.032;2023-11-19T07:21:21;37.33;;;11.97;;
10872;SDS011;34586;53.616;10.032;2023-11-19T07:23:47;38.80;;;11.13;;
10872;SDS011;34586;53.616;10.032;2023-11-19T07:26:12;33.87;;;9.87;;
10872;SDS011;34586;53.616;10.032;2023-11-19T07:28:38;40.40;;;10.30;;
10872;SDS011;34586;53.616;10.032;2023-11-19T07:31:06;30.87;;;9.30;;
10872;SDS011;34586;53.616;10.032;2023-11-19T07:33:35;39.13;;;9.03;;
10872;SDS011;34586;53.616;10.032;2023-11-19T07:36:00;35.93;;;8.27;;
10872;SDS011;34586;53.616;10.032;2023-11-19T07:38:26;37.33;;;7.43;;
10872;SDS011;34586;53.616;10.032;2023-11-19T07:40:52;26.50;;;7.20;;
10872;SDS011;34586;53.616;10.032;2023-11-19T07:43:17;31.17;;;6.60;;
10872;SDS011;34586;53.616;10.032;2023-11-19T07:45:43;29.80;;;6.63;;
10872;SDS011;34586;53.616;10.032;2023-11-19T07:48:10;29.67;;;5.47;;
10872;SDS011;34586;53.616;10.032;2023-11-19T07:50:38;30.30;;;5.53;;
10872;SDS011;34586;53.616;10.032;2023-11-19T07:53:06;32.67;;;6.17;;
10872;SDS011;34586;53.616;10.032;2023-11-19T07:55:33;25.57;;;5.13;;
10872;SDS011;34586;53.616;10.032;2023-11-19T07:57:58;28.60;;;6.10;;
10872;SDS011;34586;53.616;10.032;2023-11-19T08:00:24;25.63;;;4.67;;
10872;SDS011;34586;53.616;10.032;2023-11-19T08:02:49;24.57;;;5.17;;
10872;SDS011;34586;53.616;10.032;2023-11-19T08:05:15;29.90;;;6.47;;
10872;SDS011;34586;53.616;10.032;2023-11-19T08:07:41;33.50;;;5.43;;
10872;SDS011;34586;53.616;10.032;2023-11-19T08:10:06;29.47;;;5.73;;
10872;SDS011;34586;53.616;10.032;2023-11-19T08:12:35;30.90;;;5.93;;
10872;SDS011;34586;53.616;10.032;2023-11-19T08:15:02;36.93;;;6.00;;
10872;SDS011;34586;53.616;10.032;2023-11-19T08:17:28;31.50;;;5.60;;
10872;SDS011;34586;53.616;10.032;2023-11-19T08:19:54;33.90;;;5.63;;
10872;SDS011;34586;53.616;10.032;2023-11-19T08:22:19;22.83;;;5.20;;
10872;SDS011;34586;53.616;10.032;2023-11-19T08:24:45;37.10;;;5.73;;
10872;SDS011;34586;53.616;10.032;2023-11-19T08:27:10;34.67;;;5.53;;
10872;SDS011;34586;53.616;10.032;2023-11-19T08:29:36;30.10;;;5.87;;
10872;SDS011;34586;53.616;10.032;2023-11-19T08:32:01;29.93;;;5.83;;
10872;SDS011;34586;53.616;10.032;2023-11-19T08:34:28;28.43;;;5.17;;
10872;SDS011;34586;53.616;10.032;2023-11-19T08:36:54;32.17;;;5.97;;
10872;SDS011;34586;53.616;10.032;2023-11-19T08:39:20;30.87;;;5.20;;
10872;SDS011;34586;53.616;10.032;2023-11-19T08:41:49;29.30;;;5.27;;
10872;SDS011;34586;53.616;10.032;2023-11-19T08:44:15;28.03;;;5.70;;
10872;SDS011;34586;53.616;10.032;2023-11-19T08:46:50;28.53;;;5.10;;
10872;SDS011;34586;53.616;10.032;2023-11-19T08:49:16;27.13;;;5.43;;
10872;SDS011;34586;53.616;10.032;2023-11-19T08:51:42;28.77;;;5.60;;
10872;SDS011;34586;53.616;10.032;2023-11-19T08:54:08;28.73;;;4.87;;
10872;SDS011;34586;53.616;10.032;2023-11-19T08:56:33;28.40;;;5.20;;
10872;SDS011;34586;53.616;10.032;2023-11-19T08:59:00;32.53;;;5.83;;
10872;SDS011;34586;53.616;10.032;2023-11-19T09:01:26;32.57;;;5.67;;
10872;SDS011;34586;53.616;10.032;2023-11-19T09:03:51;31.80;;;5.93;;
10872;SDS011;34586;53.616;10.032;2023-11-19T09:06:17;24.93;;;5.40;;
10872;SDS011;34586;53.616;10.032;2023-11-19T09:08:43;33.97;;;5.90;;
10872;SDS011;34586;53.616;10.032;2023-11-19T09:11:08;26.33;;;5.87;;
10872;SDS011;34586;53.616;10.032;2023-11-19T09:13:34;30.43;;;5.83;;
10872;SDS011;34586;53.616;10.032;2023-11-19T09:16:00;30.87;;;5.37;;
10872;SDS011;34586;53.616;10.032;2023-11-19T09:18:29;33.17;;;6.47;;
10872;SDS011;34586;53.616;10.032;2023-11-19T09:20:55;30.03;;;6.37;;
10872;SDS011;34586;53.616;10.032;2023-11-19T09:23:21;36.77;;;6.93;;
10872;SDS011;34586;53.616;10.032;2023-11-19T09:25:46;31.10;;;6.20;;
10872;SDS011;34586;53.616;10.032;2023-11-19T09:28:12;33.83;;;5.80;;
10872;SDS011;34586;53.616;10.032;2023-11-19T09:30:39;27.37;;;5.80;;
10872;SDS011;34586;53.616;10.032;2023-11-19T09:33:05;32.43;;;5.73;;
10872;SDS011;34586;53.616;10.032;2023-11-19T09:35:30;36.17;;;6.47;;
10872;SDS011;34586;53.616;10.032;2023-11-19T09:37:56;31.40;;;6.17;;
10872;SDS011;34586;53.616;10.032;2023-11-19T09:40:21;35.87;;;6.27;;
10872;SDS011;34586;53.616;10.032;2023-11-19T09:42:47;35.23;;;6.13;;
10872;SDS011;34586;53.616;10.032;2023-11-19T09:45:13;32.67;;;6.27;;
10872;SDS011;34586;53.616;10.032;2023-11-19T09:47:43;35.33;;;6.17;;
10872;SDS011;34586;53.616;10.032;2023-11-19T09:50:10;32.00;;;6.30;;
10872;SDS011;34586;53.616;10.032;2023-11-19T09:52:41;27.17;;;5.77;;
10872;SDS011;34586;53.616;10.032;2023-11-19T09:55:08;30.77;;;6.47;;
10872;SDS011;34586;53.616;10.032;2023-11-19T09:57:33;34.43;;;5.80;;
10872;SDS011;34586;53.616;10.032;2023-11-19T10:00:02;26.73;;;5.40;;
10872;SDS011;34586;53.616;10.032;2023-11-19T10:02:31;30.60;;;6.13;;
10872;SDS011;34586;53.616;10.032;2023-11-19T10:04:58;27.90;;;5.70;;
10872;SDS011;34586;53.616;10.032;2023-11-19T10:07:27;30.90;;;5.90;;
10872;SDS011;34586;53.616;10.032;2023-11-19T10:09:53;32.23;;;6.10;;
10872;SDS011;34586;53.616;10.032;2023-11-19T10:12:19;28.67;;;5.80;;
10872;SDS011;34586;53.616;10.032;2023-11-19T10:14:44;24.70;;;5.33;;
10872;SDS011;34586;53.616;10.032;2023-11-19T10:17:12;26.53;;;5.97;;
10872;SDS011;34586;53.616;10.032;2023-11-19T10:19:39;33.67;;;6.10;;
10872;SDS011;34586;53.616;10.032;2023-11-19T10:22:06;33.40;;;6.03;;
10872;SDS011;34586;53.616;10.032;2023-11-19T10:24:32;26.87;;;5.77;;
10872;SDS011;34586;53.616;10.032;2023-11-19T10:26:59;30.57;;;6.33;;
10872;SDS011;34586;53.616;10.032;2023-11-19T10:29:27;35.20;;;6.03;;
10872;SDS011;34586;53.616;10.032;2023-11-19T10:31:58;33.33;;;6.93;;
10872;SDS011;34586;53.616;10.032;2023-11-19T10:34:24;30.67;;;7.13;;
10872;SDS011;34586;53.616;10.032;2023-11-19T10:36:51;30.37;;;5.77;;
10872;SDS011;34586;53.616;10.032;2023-11-19T10:39:17;39.40;;;7.47;;
10872;SDS011;34586;53.616;10.032;2023-11-19T10:41:43;33.47;;;6.57;;
10872;SDS011;34586;53.616;10.032;2023-11-19T10:44:09;33.93;;;6.03;;
10872;SDS011;34586;53.616;10.032;2023-11-19T10:46:38;28.33;;;6.13;;
10872;SDS011;34586;53.616;10.032;2023-11-19T10:49:06;30.20;;;5.70;;
10872;SDS011;34586;53.616;10.032;2023-11-19T10:51:32;36.10;;;6.60;;
10872;SDS011;34586;53.616;10.032;2023-11-19T10:54:04;32.97;;;6.50;;
10872;SDS011;34586;53.616;10.032;2023-11-19T10:56:31;34.63;;;6.27;;
10872;SDS011;34586;53.616;10.032;2023-11-19T10:58:58;37.70;;;6.47;;
10872;SDS011;34586;53.616;10.032;2023-11-19T11:01:26;32.30;;;6.10;;
10872;SDS011;34586;53.616;10.032;2023-11-19T11:03:59;26.17;;;5.50;;
10872;SDS011;34586;53.616;10.032;2023-11-19T11:06:26;34.63;;;5.13;;
10872;SDS011;34586;53.616;10.032;2023-11-19T11:08:52;26.57;;;5.27;;
10872;SDS011;34586;53.616;10.032;2023-11-19T11:11:20;38.40;;;6.63;;
10872;SDS011;34586;53.616;10.032;2023-11-19T11:13:46;29.00;;;6.00;;
10872;SDS011;34586;53.616;10.032;2023-11-19T11:16:14;30.37;;;6.43;;
10872;SDS011;34586;53.616;10.032;2023-11-19T11:18:43;32.33;;;7.07;;
10872;SDS011;34586;53.616;10.032;2023-11-19T11:21:14;33.10;;;7.00;;
10872;SDS011;34586;53.616;10.032;2023-11-19T11:29:37;32.53;;;6.60;;
10872;SDS011;34586;53.616;10.032;2023-11-19T11:34:58;29.23;;;6.03;;
10872;SDS011;34586;53.616;10.032;2023-11-19T11:37:35;31.43;;;5.50;;
10872;SDS011;34586;53.616;10.032;2023-11-19T11:40:04;27.70;;;5.00;;
10872;SDS011;34586;53.616;10.032;2023-11-19T11:42:35;35.30;;;6.57;;
10872;SDS011;34586;53.616;10.032;2023-11-19T11:45:05;29.13;;;5.80;;
10872;SDS011;34586;53.616;10.032;2023-11-19T11:50:10;33.47;;;6.13;;
10872;SDS011;34586;53.616;10.032;2023-11-19T11:55:27;30.50;;;6.53;;
10872;SDS011;34586;53.616;10.032;2023-11-19T11:57:54;37.07;;;6.80;;
10872;SDS011;34586;53.616;10.032;2023-11-19T12:00:26;26.30;;;5.50;;
10872;SDS011;34586;53.616;10.032;2023-11-19T12:02:54;31.47;;;5.80;;
10872;SDS011;34586;53.616;10.032;2023-11-19T12:05:26;32.53;;;6.27;;
10872;SDS011;34586;53.616;10.032;2023-11-19T12:07:56;34.90;;;6.47;;
10872;SDS011;34586;53.616;10.032;2023-11-19T12:10:26;31.97;;;5.80;;
10872;SDS011;34586;53.616;10.032;2023-11-19T12:12:56;28.77;;;5.83;;
10872;SDS011;34586;53.616;10.032;2023-11-19T12:15:23;33.67;;;6.40;;
10872;SDS011;34586;53.616;10.032;2023-11-19T12:17:51;28.10;;;5.40;;
10872;SDS011;34586;53.616;10.032;2023-11-19T12:20:17;28.87;;;5.93;;
10872;SDS011;34586;53.616;10.032;2023-11-19T12:22:44;35.27;;;6.20;;
10872;SDS011;34586;53.616;10.032;2023-11-19T12:25:11;36.57;;;6.40;;
10872;SDS011;34586;53.616;10.032;2023-11-19T12:27:56;31.97;;;6.20;;
10872;SDS011;34586;53.616;10.032;2023-11-19T12:30:22;23.97;;;4.90;;
10872;SDS011;34586;53.616;10.032;2023-11-19T12:32:52;27.47;;;5.90;;
10872;SDS011;34586;53.616;10.032;2023-11-19T12:35:21;26.47;;;5.97;;
10872;SDS011;34586;53.616;10.032;2023-11-19T12:37:49;25.87;;;5.10;;
10872;SDS011;34586;53.616;10.032;2023-11-19T12:40:17;25.20;;;5.33;;
10872;SDS011;34586;53.616;10.032;2023-11-19T12:42:46;25.17;;;4.77;;
10872;SDS011;34586;53.616;10.032;2023-11-19T12:45:15;26.40;;;5.17;;
10872;SDS011;34586;53.616;10.032;2023-11-19T12:47:42;23.50;;;5.97;;
10872;SDS011;34586;53.616;10.032;2023-11-19T12:50:08;23.07;;;4.67;;
10872;SDS011;34586;53.616;10.032;2023-11-19T12:52:37;26.43;;;5.67;;
10872;SDS011;34586;53.616;10.032;2023-11-19T12:55:04;29.83;;;5.60;;
10872;SDS011;34586;53.616;10.032;2023-11-19T12:57:41;22.40;;;5.30;;
10872;SDS011;34586;53.616;10.032;2023-11-19T13:00:07;28.20;;;5.50;;
10872;SDS011;34586;53.616;10.032;2023-11-19T13:02:46;24.53;;;4.60;;
10872;SDS011;34586;53.616;10.032;2023-11-19T13:05:32;28.70;;;5.47;;
10872;SDS011;34586;53.616;10.032;2023-11-19T13:08:05;26.90;;;5.53;;
10872;SDS011;34586;53.616;10.032;2023-11-19T13:10:33;28.13;;;5.00;;
10872;SDS011;34586;53.616;10.032;2023-11-19T13:13:16;24.37;;;5.33;;
10872;SDS011;34586;53.616;10.032;2023-11-19T13:15:42;29.43;;;5.63;;
10872;SDS011;34586;53.616;10.032;2023-11-19T13:18:11;29.70;;;5.70;;
10872;SDS011;34586;53.616;10.032;2023-11-19T13:20:37;22.63;;;5.13;;
10872;SDS011;34586;53.616;10.032;2023-11-19T13:23:04;28.37;;;5.53;;
10872;SDS011;34586;53.616;10.032;2023-11-19T13:25:32;28.23;;;5.47;;
10872;SDS011;34586;53.616;10.032;2023-11-19T13:27:58;25.90;;;6.20;;
10872;SDS011;34586;53.616;10.032;2023-11-19T13:30:24;36.87;;;6.37;;
10872;SDS011;34586;53.616;10.032;2023-11-19T13:32:51;31.23;;;5.73;;
10872;SDS011;34586;53.616;10.032;2023-11-19T13:35:19;24.00;;;4.80;;
10872;SDS011;34586;53.616;10.032;2023-11-19T13:37:45;30.03;;;5.03;;
10872;SDS011;34586;53.616;10.032;2023-11-19T13:40:11;27.90;;;5.57;;
10872;SDS011;34586;53.616;10.032;2023-11-19T13:42:43;25.63;;;5.27;;
10872;SDS011;34586;53.616;10.032;2023-11-19T13:45:09;24.73;;;5.53;;
10872;SDS011;34586;53.616;10.032;2023-11-19T13:47:42;24.80;;;5.87;;
10872;SDS011;34586;53.616;10.032;2023-11-19T13:50:09;29.57;;;5.90;;
10872;SDS011;34586;53.616;10.032;2023-11-19T13:52:36;26.70;;;5.70;;
10872;SDS011;34586;53.616;10.032;2023-11-19T13:55:04;27.10;;;5.63;;
10872;SDS011;34586;53.616;10.032;2023-11-19T13:57:34;30.47;;;5.97;;
10872;SDS011;34586;53.616;10.032;2023-11-19T14:00:01;27.50;;;5.10;;
10872;SDS011;34586;53.616;10.032;2023-11-19T14:02:49;29.83;;;5.47;;
10872;SDS011;34586;53.616;10.032;2023-11-19T14:05:15;33.07;;;5.37;;
10872;SDS011;34586;53.616;10.032;2023-11-19T14:07:44;28.47;;;6.10;;
10872;SDS011;34586;53.616;10.032;2023-11-19T14:10:13;29.87;;;6.10;;
10872;SDS011;34586;53.616;10.032;2023-11-19T14:12:39;26.87;;;5.93;;
10872;SDS011;34586;53.616;10.032;2023-11-19T14:15:06;35.50;;;6.23;;
10872;SDS011;34586;53.616;10.032;2023-11-19T14:17:34;30.90;;;5.33;;
10872;SDS011;34586;53.616;10.032;2023-11-19T14:20:00;25.30;;;5.63;;
10872;SDS011;34586;53.616;10.032;2023-11-19T14:22:28;27.77;;;5.57;;
10872;SDS011;34586;53.616;10.032;2023-11-19T14:24:55;23.67;;;4.77;;
10872;SDS011;34586;53.616;10.032;2023-11-19T14:27:21;30.30;;;5.93;;
10872;SDS011;34586;53.616;10.032;2023-11-19T14:29:47;30.33;;;5.87;;
10872;SDS011;34586;53.616;10.032;2023-11-19T14:32:13;23.50;;;5.43;;
10872;SDS011;34586;53.616;10.032;2023-11-19T14:34:38;28.70;;;5.87;;
10872;SDS011;34586;53.616;10.032;2023-11-19T14:37:04;26.77;;;5.97;;
10872;SDS011;34586;53.616;10.032;2023-11-19T14:39:30;37.43;;;5.97;;